createdAt,value
2017-12-12T00:00:41.958Z,7.60
2017-12-12T00:03:09.498Z,7.60
2017-12-12T00:05:37.045Z,7.60
2017-12-12T00:08:04.991Z,7.50
2017-12-12T00:10:32.527Z,7.50
2017-12-12T00:13:00.103Z,7.50
2017-12-12T00:15:27.774Z,7.50
2017-12-12T00:17:55.409Z,7.50
2017-12-12T00:20:22.922Z,7.50
2017-12-12T00:22:50.579Z,7.50
2017-12-12T00:25:18.300Z,7.50
2017-12-12T00:27:45.825Z,7.50
2017-12-12T00:30:13.706Z,7.40
2017-12-12T00:32:41.699Z,7.40
2017-12-12T00:35:09.316Z,7.40
2017-12-12T00:37:36.886Z,7.40
2017-12-12T00:40:04.333Z,7.40
2017-12-12T00:42:31.799Z,7.30
2017-12-12T00:44:59.359Z,7.20
2017-12-12T00:47:26.820Z,7.20
2017-12-12T00:49:54.299Z,7.20
2017-12-12T00:52:21.759Z,7.20
2017-12-12T00:54:50.714Z,7.20
2017-12-12T00:57:18.246Z,7.30
2017-12-12T00:59:46.331Z,7.20
2017-12-12T01:02:14.195Z,7.20
2017-12-12T01:04:41.666Z,7.20
2017-12-12T01:07:09.161Z,7.20
2017-12-12T01:09:36.611Z,7.20
2017-12-12T01:12:04.148Z,7.20
2017-12-12T01:14:31.779Z,7.10
2017-12-12T01:16:59.340Z,7.10
2017-12-12T01:19:26.846Z,7.10
2017-12-12T01:21:54.600Z,7.00
2017-12-12T01:24:22.179Z,6.90
2017-12-12T01:26:49.675Z,6.90
2017-12-12T01:29:17.272Z,6.80
2017-12-12T01:31:44.743Z,6.80
2017-12-12T01:34:12.753Z,6.60
2017-12-12T01:36:40.352Z,6.60
2017-12-12T01:39:07.946Z,6.60
2017-12-12T01:41:35.815Z,6.40
2017-12-12T01:44:03.251Z,6.40
2017-12-12T01:46:30.700Z,6.30
2017-12-12T01:48:58.132Z,6.20
2017-12-12T01:51:25.582Z,6.20
2017-12-12T01:53:53.111Z,6.10
2017-12-12T01:56:20.644Z,6.00
2017-12-12T01:58:48.106Z,6.00
2017-12-12T02:01:15.543Z,5.90
2017-12-12T02:03:43.163Z,5.80
2017-12-12T02:06:10.699Z,5.70
2017-12-12T02:08:38.143Z,5.70
2017-12-12T02:11:05.581Z,5.70
2017-12-12T02:13:33.392Z,5.40
2017-12-12T02:16:00.978Z,5.40
2017-12-12T02:18:28.501Z,5.40
2017-12-12T02:20:56.163Z,5.20
2017-12-12T02:23:23.803Z,5.20
2017-12-12T02:25:51.754Z,5.10
2017-12-12T02:28:19.248Z,5.10
2017-12-12T02:30:46.781Z,5.10
2017-12-12T02:33:14.681Z,5.00
2017-12-12T02:35:42.687Z,4.90
2017-12-12T02:38:10.163Z,4.90
2017-12-12T02:40:37.598Z,4.90
2017-12-12T02:43:05.049Z,4.90
2017-12-12T02:45:32.505Z,4.90
2017-12-12T02:47:59.967Z,4.90
2017-12-12T02:50:27.545Z,4.80
2017-12-12T02:52:55.004Z,4.80
2017-12-12T02:55:22.488Z,4.80
2017-12-12T02:57:49.972Z,4.70
2017-12-12T03:00:17.466Z,4.60
2017-12-12T03:02:45.354Z,4.50
2017-12-12T03:05:12.802Z,4.50
2017-12-12T03:07:40.317Z,4.50
2017-12-12T03:10:07.774Z,4.40
2017-12-12T03:12:35.267Z,4.40
2017-12-12T03:15:02.807Z,4.40
2017-12-12T03:17:30.279Z,4.30
2017-12-12T03:19:58.312Z,4.30
2017-12-12T03:22:25.808Z,4.30
2017-12-12T03:24:53.273Z,4.30
2017-12-12T03:27:21.172Z,4.20
2017-12-12T03:29:49.109Z,4.20
2017-12-12T03:32:17.052Z,4.20
2017-12-12T03:34:44.542Z,4.20
2017-12-12T03:37:12.281Z,4.20
2017-12-12T03:39:40.218Z,4.30
2017-12-12T03:42:08.119Z,4.30
2017-12-12T03:44:35.570Z,4.30
2017-12-12T03:47:03.064Z,4.30
2017-12-12T03:49:30.555Z,4.30
2017-12-12T03:51:59.484Z,4.30
2017-12-12T03:54:27.269Z,4.30
2017-12-12T03:56:54.836Z,4.30
2017-12-12T03:59:22.615Z,4.30
2017-12-12T04:01:50.129Z,4.30
2017-12-12T04:04:18.012Z,4.30
2017-12-12T04:06:45.914Z,4.30
2017-12-12T04:09:13.615Z,4.30
2017-12-12T04:11:41.375Z,4.20
2017-12-12T04:14:08.858Z,4.20
2017-12-12T04:16:36.384Z,4.20
2017-12-12T04:19:04.243Z,4.20
2017-12-12T04:21:31.791Z,4.30
2017-12-12T04:23:59.885Z,4.30
2017-12-12T04:26:27.569Z,4.30
2017-12-12T04:28:55.456Z,4.30
2017-12-12T04:31:22.918Z,4.30
2017-12-12T04:33:50.426Z,4.30
2017-12-12T04:36:18.304Z,4.30
2017-12-12T04:38:46.211Z,4.20
2017-12-12T04:41:13.668Z,4.30
2017-12-12T04:43:41.828Z,4.30
2017-12-12T04:46:09.383Z,4.30
2017-12-12T04:48:37.256Z,4.20
2017-12-12T04:51:04.762Z,4.30
2017-12-12T04:53:32.995Z,4.30
2017-12-12T04:56:00.981Z,4.40
2017-12-12T04:58:28.522Z,4.40
2017-12-12T05:00:56.532Z,4.40
2017-12-12T05:03:24.051Z,4.40
2017-12-12T05:05:51.947Z,4.50
2017-12-12T05:08:19.814Z,4.50
2017-12-12T05:10:47.666Z,4.60
2017-12-12T05:13:15.549Z,4.50
2017-12-12T05:15:43.724Z,4.60
2017-12-12T05:18:11.213Z,4.60
2017-12-12T05:20:38.664Z,4.60
2017-12-12T05:23:06.125Z,4.60
2017-12-12T05:25:33.596Z,4.60
2017-12-12T05:28:01.024Z,4.60
2017-12-12T05:30:28.933Z,4.60
2017-12-12T05:32:56.363Z,4.60
2017-12-12T05:35:23.806Z,4.60
2017-12-12T05:37:51.747Z,4.60
2017-12-12T05:40:19.725Z,4.50
2017-12-12T05:42:47.151Z,4.50
2017-12-12T05:45:14.567Z,4.50
2017-12-12T05:47:42.409Z,4.50
2017-12-12T05:50:09.834Z,4.50
2017-12-12T05:52:37.327Z,4.50
2017-12-12T05:55:04.802Z,4.50
2017-12-12T05:57:32.236Z,4.50
2017-12-12T05:59:59.712Z,4.50
2017-12-12T06:02:27.155Z,4.50
2017-12-12T06:04:54.564Z,4.50
2017-12-12T06:07:22.503Z,4.60
2017-12-12T06:09:49.942Z,4.50
2017-12-12T06:12:17.423Z,4.50
2017-12-12T06:14:44.948Z,4.50
2017-12-12T06:17:12.584Z,4.60
2017-12-12T06:19:40.060Z,4.60
2017-12-12T06:22:07.894Z,4.60
2017-12-12T06:24:35.696Z,4.60
2017-12-12T06:27:03.162Z,4.60
2017-12-12T06:29:30.920Z,4.60
2017-12-12T06:31:58.376Z,4.60
2017-12-12T06:34:25.822Z,4.70
2017-12-12T06:36:53.288Z,4.60
2017-12-12T06:39:20.732Z,4.70
2017-12-12T06:41:48.195Z,4.70
2017-12-12T06:44:15.652Z,4.70
2017-12-12T06:46:43.075Z,4.60
2017-12-12T06:49:10.558Z,4.60
2017-12-12T06:51:38.023Z,4.70
2017-12-12T06:54:05.465Z,4.70
2017-12-12T06:56:32.964Z,4.60
2017-12-12T06:59:00.415Z,4.60
2017-12-12T07:01:27.876Z,4.60
2017-12-12T07:03:55.322Z,4.60
2017-12-12T07:06:22.801Z,4.60
2017-12-12T07:08:50.270Z,4.60
2017-12-12T07:11:17.695Z,4.60
2017-12-12T07:13:45.129Z,4.50
2017-12-12T07:16:12.980Z,4.50
2017-12-12T07:18:40.441Z,4.50
2017-12-12T07:21:07.894Z,4.50
2017-12-12T07:23:35.361Z,4.50
2017-12-12T07:26:02.813Z,4.40
2017-12-12T07:28:30.275Z,4.40
2017-12-12T07:30:58.016Z,4.40
2017-12-12T07:33:25.905Z,4.40
2017-12-12T07:35:53.507Z,4.40
2017-12-12T07:38:22.965Z,4.30
2017-12-12T07:40:50.598Z,4.30
2017-12-12T07:43:18.551Z,4.20
2017-12-12T07:45:46.060Z,4.20
2017-12-12T07:48:13.483Z,4.20
2017-12-12T07:50:41.408Z,4.20
2017-12-12T07:53:08.924Z,4.20
2017-12-12T07:55:36.400Z,4.20
2017-12-12T07:58:04.522Z,4.20
2017-12-12T08:00:32.072Z,4.20
2017-12-12T08:02:59.728Z,4.10
2017-12-12T08:05:27.279Z,4.20
2017-12-12T08:07:54.792Z,4.20
2017-12-12T08:10:22.314Z,4.30
2017-12-12T08:12:49.857Z,4.30
2017-12-12T08:15:17.794Z,4.40
2017-12-12T08:17:45.529Z,4.40
2017-12-12T08:20:13.199Z,4.40
2017-12-12T08:22:40.670Z,4.30
2017-12-12T08:25:08.164Z,4.40
2017-12-12T08:27:35.702Z,4.40
2017-12-12T08:30:03.188Z,4.40
2017-12-12T08:32:30.663Z,4.40
2017-12-12T08:34:58.675Z,4.40
2017-12-12T08:37:26.234Z,4.40
2017-12-12T08:39:54.147Z,4.40
2017-12-12T08:42:21.741Z,4.40
2017-12-12T08:44:49.558Z,4.40
2017-12-12T08:47:17.214Z,4.40
2017-12-12T08:49:44.904Z,4.40
2017-12-12T08:52:13.733Z,4.50
2017-12-12T08:54:41.188Z,4.60
2017-12-12T08:57:08.712Z,4.60
2017-12-12T08:59:36.221Z,4.60
2017-12-12T09:02:04.060Z,4.60
2017-12-12T09:04:31.532Z,4.70
2017-12-12T09:06:58.988Z,4.70
2017-12-12T09:09:26.438Z,4.80
2017-12-12T09:11:53.882Z,4.80
2017-12-12T09:14:21.571Z,4.80
2017-12-12T09:16:49.024Z,4.90
2017-12-12T09:19:16.490Z,4.90
2017-12-12T09:21:44.062Z,4.90
2017-12-12T09:24:11.491Z,4.90
2017-12-12T09:26:38.963Z,5.00
2017-12-12T09:29:06.397Z,5.00
2017-12-12T09:31:33.822Z,5.10
2017-12-12T09:34:01.269Z,5.10
2017-12-12T09:36:28.708Z,5.20
2017-12-12T09:38:56.127Z,5.30
2017-12-12T09:41:23.955Z,5.50
2017-12-12T09:43:51.385Z,5.50
2017-12-12T09:46:18.860Z,5.70
2017-12-12T09:48:46.316Z,5.70
2017-12-12T09:51:13.802Z,5.80
2017-12-12T09:53:41.371Z,5.90
2017-12-12T09:56:08.938Z,6.00
2017-12-12T09:58:36.378Z,6.10
2017-12-12T10:01:03.836Z,6.10
2017-12-12T10:03:31.283Z,6.10
2017-12-12T10:05:58.906Z,6.20
2017-12-12T10:08:26.334Z,6.20
2017-12-12T10:10:53.775Z,6.30
2017-12-12T10:13:21.229Z,6.50
2017-12-12T10:15:48.659Z,6.60
2017-12-12T10:18:16.475Z,6.60
2017-12-12T10:20:43.923Z,6.60
2017-12-12T10:23:11.365Z,6.70
2017-12-12T10:25:39.206Z,6.70
2017-12-12T10:28:06.751Z,6.70
2017-12-12T10:30:34.166Z,6.80
2017-12-12T10:33:01.628Z,6.80
2017-12-12T10:35:29.115Z,6.80
2017-12-12T10:37:56.519Z,6.80
2017-12-12T10:40:23.968Z,6.80
2017-12-12T10:42:51.639Z,6.80
2017-12-12T10:45:19.142Z,6.90
2017-12-12T10:47:46.826Z,6.90
2017-12-12T10:50:14.316Z,7.00
2017-12-12T10:52:42.319Z,7.00
2017-12-12T10:55:10.443Z,7.00
2017-12-12T10:57:37.934Z,7.00
2017-12-12T11:00:05.523Z,7.10
2017-12-12T11:02:33.433Z,7.10
2017-12-12T11:05:01.094Z,7.10
2017-12-12T11:07:28.998Z,7.10
2017-12-12T11:09:56.442Z,7.10
2017-12-12T11:12:24.052Z,7.10
2017-12-12T11:14:51.718Z,7.00
2017-12-12T11:17:19.335Z,7.00
2017-12-12T11:19:46.799Z,7.00
2017-12-12T11:22:14.383Z,7.00
2017-12-12T11:24:41.843Z,6.90
2017-12-12T11:27:09.432Z,6.80
2017-12-12T11:29:37.020Z,6.80
2017-12-12T11:32:04.890Z,6.80
2017-12-12T11:34:32.873Z,6.70
2017-12-12T11:37:00.353Z,6.70
2017-12-12T11:39:27.815Z,6.70
2017-12-12T11:41:55.259Z,6.60
2017-12-12T11:44:22.799Z,6.60
2017-12-12T11:46:50.541Z,6.50
2017-12-12T11:49:18.060Z,6.50
2017-12-12T11:51:45.845Z,6.50
2017-12-12T11:54:13.582Z,6.50
2017-12-12T11:56:41.513Z,6.40
2017-12-12T11:59:09.062Z,6.40
2017-12-12T12:01:36.959Z,6.40
2017-12-12T12:04:04.553Z,6.40
2017-12-12T12:06:32.437Z,6.40
2017-12-12T12:09:00.846Z,6.30
2017-12-12T12:11:28.317Z,6.30
2017-12-12T12:13:55.786Z,6.30
2017-12-12T12:16:23.531Z,6.20
2017-12-12T12:18:51.017Z,6.10
2017-12-12T12:21:18.490Z,6.10
2017-12-12T12:23:45.948Z,6.10
2017-12-12T12:26:13.801Z,6.00
2017-12-12T12:28:41.659Z,6.00
2017-12-12T12:31:09.429Z,6.10
2017-12-12T12:33:37.100Z,6.10
2017-12-12T12:36:04.822Z,6.10
2017-12-12T12:38:33.306Z,6.10
2017-12-12T12:41:00.978Z,6.10
2017-12-12T12:43:30.191Z,6.20
2017-12-12T12:45:57.648Z,6.20
2017-12-12T12:48:25.544Z,6.40
2017-12-12T12:50:53.572Z,6.40
2017-12-12T12:53:21.317Z,6.50
2017-12-12T12:55:49.129Z,6.60
2017-12-12T12:58:16.841Z,6.60
2017-12-12T13:00:44.280Z,6.70
2017-12-12T13:03:11.924Z,6.70
2017-12-12T13:05:39.474Z,6.70
2017-12-12T13:08:06.991Z,6.80
2017-12-12T13:10:34.651Z,6.80
2017-12-12T13:13:02.431Z,6.90
2017-12-12T13:15:29.925Z,6.80
2017-12-12T13:17:57.648Z,6.80
2017-12-12T13:20:25.295Z,6.80
2017-12-12T13:22:53.789Z,6.80
2017-12-12T13:25:21.423Z,6.80
2017-12-12T13:27:48.935Z,6.70
2017-12-12T13:30:16.565Z,6.70
2017-12-12T13:32:44.527Z,6.60
2017-12-12T13:35:12.619Z,6.60
2017-12-12T13:37:40.722Z,6.50
2017-12-12T13:40:08.501Z,6.50
2017-12-12T13:42:36.261Z,6.50
2017-12-12T13:45:04.376Z,6.30
2017-12-12T13:47:31.922Z,6.40
2017-12-12T13:49:59.460Z,6.30
2017-12-12T13:52:26.942Z,6.30
2017-12-12T13:54:54.649Z,6.30
2017-12-12T13:57:22.556Z,6.30
2017-12-12T13:59:50.032Z,6.20
2017-12-12T14:02:17.830Z,6.20
2017-12-12T14:04:45.319Z,6.20
2017-12-12T14:07:12.787Z,6.20
2017-12-12T14:09:40.775Z,6.20
2017-12-12T14:12:08.410Z,6.20
2017-12-12T14:14:36.118Z,6.30
2017-12-12T14:17:03.609Z,6.20
2017-12-12T14:19:31.124Z,6.20
2017-12-12T14:21:59.233Z,6.20
2017-12-12T14:24:26.893Z,6.10
2017-12-12T14:26:54.468Z,6.10
2017-12-12T14:29:21.928Z,6.10
2017-12-12T14:31:49.633Z,6.10
2017-12-12T14:34:17.159Z,6.10
2017-12-12T14:36:44.719Z,6.10
2017-12-12T14:39:12.588Z,6.10
2017-12-12T14:41:40.057Z,6.10
2017-12-12T14:44:08.626Z,6.00
2017-12-12T14:46:36.758Z,6.00
2017-12-12T14:49:04.199Z,5.90
2017-12-12T14:51:31.776Z,6.00
2017-12-12T14:53:59.348Z,5.90
2017-12-12T14:56:27.651Z,5.90
2017-12-12T14:58:56.036Z,5.90
2017-12-12T15:01:23.547Z,5.90
2017-12-12T15:03:51.030Z,5.80
2017-12-12T15:06:18.533Z,5.80
2017-12-12T15:08:46.420Z,5.70
2017-12-12T15:11:13.923Z,5.70
2017-12-12T15:13:41.409Z,5.60
2017-12-12T15:16:09.337Z,5.50
2017-12-12T15:18:36.992Z,5.50
2017-12-12T15:21:05.079Z,5.50
2017-12-12T15:23:32.553Z,5.50
2017-12-12T15:26:00.181Z,5.40
2017-12-12T15:28:27.852Z,5.40
2017-12-12T15:30:55.311Z,5.40
2017-12-12T15:33:22.976Z,5.40
2017-12-12T15:35:50.568Z,5.40
2017-12-12T15:38:18.451Z,5.40
2017-12-12T15:40:45.911Z,5.40
2017-12-12T15:43:13.870Z,5.50
2017-12-12T15:45:41.799Z,5.50
2017-12-12T15:48:10.144Z,5.50
2017-12-12T15:50:37.617Z,5.50
2017-12-12T15:53:05.351Z,5.40
2017-12-12T15:55:32.822Z,5.40
2017-12-12T15:58:00.464Z,5.40
2017-12-12T16:00:28.240Z,5.40
2017-12-12T16:02:55.808Z,5.30
2017-12-12T16:05:23.880Z,5.30
2017-12-12T16:07:51.411Z,5.30
2017-12-12T16:10:19.455Z,5.30
2017-12-12T16:12:47.453Z,5.30
2017-12-12T16:15:15.425Z,5.30
2017-12-12T16:17:43.330Z,5.30
2017-12-12T16:20:11.258Z,5.30
2017-12-12T16:22:38.968Z,5.20
2017-12-12T16:25:06.422Z,5.20
2017-12-12T16:27:33.901Z,5.20
2017-12-12T16:30:01.421Z,5.10
2017-12-12T16:32:29.536Z,5.10
2017-12-12T16:34:56.964Z,5.10
2017-12-12T16:37:24.840Z,5.00
2017-12-12T16:39:52.774Z,4.90
2017-12-12T16:42:21.114Z,4.90
2017-12-12T16:44:48.798Z,4.90
2017-12-12T16:47:16.307Z,4.90
2017-12-12T16:49:43.778Z,4.80
2017-12-12T16:52:11.656Z,4.70
2017-12-12T16:54:39.641Z,4.70
2017-12-12T16:57:07.734Z,4.60
2017-12-12T16:59:35.232Z,4.60
2017-12-12T17:02:02.829Z,4.60
2017-12-12T17:04:30.377Z,4.70
2017-12-12T17:06:58.092Z,4.60
2017-12-12T17:09:25.764Z,4.60
2017-12-12T17:11:53.476Z,4.60
2017-12-12T17:14:20.991Z,4.60
2017-12-12T17:16:48.768Z,4.50
2017-12-12T17:19:17.296Z,4.50
2017-12-12T17:21:44.840Z,4.50
2017-12-12T17:24:12.262Z,4.40
2017-12-12T17:26:39.736Z,4.40
2017-12-12T17:29:07.164Z,4.30
2017-12-12T17:31:35.004Z,4.20
2017-12-12T17:34:02.460Z,4.20
2017-12-12T17:36:29.916Z,4.20
2017-12-12T17:38:57.495Z,4.20
2017-12-12T17:41:24.942Z,4.20
2017-12-12T17:43:52.381Z,4.20
2017-12-12T17:46:19.840Z,4.20
2017-12-12T17:48:47.328Z,4.20
2017-12-12T17:51:15.750Z,4.20
2017-12-12T17:53:43.593Z,4.20
2017-12-12T17:56:11.090Z,4.20
2017-12-12T17:58:38.928Z,4.10
2017-12-12T18:01:06.472Z,4.10
2017-12-12T18:03:33.927Z,4.10
2017-12-12T18:06:01.540Z,4.10
2017-12-12T18:08:29.075Z,4.20
2017-12-12T18:10:56.558Z,4.10
2017-12-12T18:13:24.470Z,4.10
2017-12-12T18:15:51.948Z,4.10
2017-12-12T18:18:19.435Z,4.10
2017-12-12T18:20:47.300Z,4.10
2017-12-12T18:23:15.270Z,4.10
2017-12-12T18:25:42.725Z,4.10
2017-12-12T18:28:10.260Z,4.00
2017-12-12T18:30:37.766Z,4.00
2017-12-12T18:33:05.248Z,4.00
2017-12-12T18:35:32.920Z,4.00
2017-12-12T18:38:00.782Z,4.00
2017-12-12T18:40:28.235Z,4.00
2017-12-12T18:42:55.684Z,3.90
2017-12-12T18:45:23.175Z,3.90
2017-12-12T18:47:51.055Z,4.00
2017-12-12T18:50:19.634Z,3.90
2017-12-12T18:52:47.136Z,3.90
2017-12-12T18:55:14.565Z,3.90
2017-12-12T18:57:42.491Z,3.90
2017-12-12T19:00:09.934Z,3.90
2017-12-12T19:02:37.432Z,3.90
2017-12-12T19:05:04.933Z,3.90
2017-12-12T19:07:32.833Z,4.00
2017-12-12T19:10:00.337Z,4.00
2017-12-12T19:12:27.843Z,4.10
2017-12-12T19:14:55.304Z,4.10
2017-12-12T19:17:22.721Z,4.10
2017-12-12T19:19:50.215Z,4.20
2017-12-12T19:22:18.044Z,4.30
2017-12-12T19:24:45.509Z,4.30
2017-12-12T19:27:12.998Z,4.30
2017-12-12T19:29:40.859Z,4.20
2017-12-12T19:32:08.700Z,4.10
2017-12-12T19:34:36.262Z,4.10
2017-12-12T19:37:03.811Z,4.10
2017-12-12T19:39:33.118Z,4.10
2017-12-12T19:42:00.575Z,4.10
2017-12-12T19:44:28.048Z,4.00
2017-12-12T19:46:55.470Z,4.00
2017-12-12T19:49:23.000Z,4.00
2017-12-12T19:51:50.468Z,4.00
2017-12-12T19:54:18.319Z,4.00
2017-12-12T19:56:45.816Z,4.00
2017-12-12T19:59:13.674Z,4.00
2017-12-12T20:01:41.123Z,4.00
2017-12-12T20:04:08.591Z,4.00
2017-12-12T20:06:36.026Z,4.00
2017-12-12T20:09:03.480Z,4.00
2017-12-12T20:11:30.945Z,4.10
2017-12-12T20:13:58.390Z,4.00
2017-12-12T20:16:26.407Z,4.10
2017-12-12T20:18:53.844Z,4.10
2017-12-12T20:21:21.276Z,4.20
2017-12-12T20:23:48.758Z,4.20
2017-12-12T20:26:16.196Z,4.20
2017-12-12T20:28:43.683Z,4.10
2017-12-12T20:31:11.132Z,4.10
2017-12-12T20:33:38.594Z,4.10
2017-12-12T20:36:06.054Z,4.10
2017-12-12T20:38:33.528Z,4.10
2017-12-12T20:41:00.987Z,4.10
2017-12-12T20:43:28.494Z,4.10
2017-12-12T20:45:55.944Z,4.10
2017-12-12T20:48:23.610Z,4.10
2017-12-12T20:50:51.063Z,4.10
2017-12-12T20:53:18.632Z,4.00
2017-12-12T20:55:46.075Z,4.00
2017-12-12T20:58:13.516Z,4.00
2017-12-12T21:00:41.640Z,4.00
2017-12-12T21:03:09.186Z,4.00
2017-12-12T21:05:36.626Z,4.10
2017-12-12T21:08:04.070Z,4.00
2017-12-12T21:10:31.577Z,3.90
2017-12-12T21:12:59.024Z,3.90
2017-12-12T21:15:26.505Z,3.90
2017-12-12T21:17:53.952Z,3.90
2017-12-12T21:20:21.386Z,3.90
2017-12-12T21:22:48.862Z,3.90
2017-12-12T21:25:17.132Z,3.80
2017-12-12T21:27:44.573Z,3.80
2017-12-12T21:30:12.004Z,3.70
2017-12-12T21:32:39.442Z,3.70
2017-12-12T21:35:06.887Z,3.60
2017-12-12T21:37:34.320Z,3.60
2017-12-12T21:40:01.771Z,3.60
2017-12-12T21:42:29.606Z,3.70
2017-12-12T21:44:57.138Z,3.70
2017-12-12T21:47:24.614Z,3.70
2017-12-12T21:49:52.069Z,3.70
2017-12-12T21:52:19.542Z,3.70
2017-12-12T21:54:47.056Z,3.70
2017-12-12T21:57:14.507Z,3.70
2017-12-12T21:59:42.358Z,3.70
2017-12-12T22:02:09.792Z,3.70
2017-12-12T22:04:37.259Z,3.70
2017-12-12T22:07:05.207Z,3.70
2017-12-12T22:09:32.649Z,3.70
2017-12-12T22:12:00.109Z,3.70
2017-12-12T22:14:27.599Z,3.80
2017-12-12T22:16:55.160Z,3.80
2017-12-12T22:19:22.608Z,3.80
2017-12-12T22:21:50.071Z,3.80
2017-12-12T22:24:17.491Z,3.70
2017-12-12T22:26:45.004Z,3.70
2017-12-12T22:29:12.480Z,3.60
2017-12-12T22:31:39.927Z,3.60
2017-12-12T22:34:07.417Z,3.50
2017-12-12T22:36:34.861Z,3.40
2017-12-12T22:39:02.328Z,3.40
2017-12-12T22:41:29.734Z,3.40
2017-12-12T22:43:57.583Z,3.30
2017-12-12T22:46:25.141Z,3.30
2017-12-12T22:48:52.692Z,3.30
2017-12-12T22:51:20.147Z,3.40
2017-12-12T22:53:47.687Z,3.40
2017-12-12T22:56:15.124Z,3.40
2017-12-12T22:58:43.070Z,3.50
2017-12-12T23:01:10.500Z,3.50
2017-12-12T23:03:38.068Z,3.60
2017-12-12T23:06:05.722Z,3.60
2017-12-12T23:08:33.143Z,3.60
2017-12-12T23:11:00.972Z,3.50
2017-12-12T23:13:28.433Z,3.50
2017-12-12T23:15:55.969Z,3.50
2017-12-12T23:18:23.391Z,3.50
2017-12-12T23:20:51.391Z,3.50
2017-12-12T23:23:18.819Z,3.50
2017-12-12T23:25:46.277Z,3.50
2017-12-12T23:28:13.822Z,3.50
2017-12-12T23:30:41.366Z,3.50
2017-12-12T23:33:08.791Z,3.50
2017-12-12T23:35:36.620Z,3.50
2017-12-12T23:38:04.068Z,3.50
2017-12-12T23:40:31.508Z,3.50
2017-12-12T23:42:58.967Z,3.50
2017-12-12T23:45:27.288Z,3.60
2017-12-12T23:47:54.717Z,3.60
2017-12-12T23:50:22.143Z,3.60
2017-12-12T23:52:49.992Z,3.60
2017-12-12T23:55:17.552Z,3.60
2017-12-12T23:57:45.039Z,3.60
